createdAt,value
2023-02-06T00:01:23.207Z,68.71
2023-02-06T00:03:50.373Z,68.99
2023-02-06T00:06:17.461Z,68.69
2023-02-06T00:08:44.566Z,68.89
2023-02-06T00:11:16.728Z,69.26
2023-02-06T00:13:45.665Z,68.82
2023-02-06T00:16:26.020Z,69.03
2023-02-06T00:18:54.505Z,69.13
2023-02-06T00:21:24.623Z,69.22
2023-02-06T00:23:54.464Z,69.41
2023-02-06T00:26:22.526Z,69.15
2023-02-06T00:28:49.618Z,69.52
2023-02-06T00:31:16.906Z,69.35
2023-02-06T00:33:44.226Z,68.95
2023-02-06T00:36:12.020Z,69.21
2023-02-06T00:38:39.146Z,69.38
2023-02-06T00:41:06.452Z,69.40
2023-02-06T00:43:33.670Z,69.11
2023-02-06T00:46:00.652Z,69.21
2023-02-06T00:48:27.753Z,69.38
2023-02-06T00:50:55.173Z,69.42
2023-02-06T00:53:23.034Z,68.54
2023-02-06T00:55:50.064Z,69.09
2023-02-06T00:58:17.175Z,68.95
2023-02-06T01:00:45.004Z,68.98
2023-02-06T01:03:12.528Z,69.25
2023-02-06T01:05:39.558Z,69.23
2023-02-06T01:08:06.813Z,69.47
2023-02-06T01:10:34.214Z,69.78
2023-02-06T01:13:01.416Z,69.58
2023-02-06T01:15:28.541Z,69.88
2023-02-06T01:17:55.596Z,69.61
2023-02-06T01:20:23.942Z,69.61
2023-02-06T01:44:52.901Z,70.15
2023-02-06T01:47:20.035Z,70.26
2023-02-06T01:49:50.236Z,70.27
2023-02-06T01:52:30.372Z,70.33
2023-02-06T01:55:03.031Z,69.93
2023-02-06T01:57:31.499Z,70.14
2023-02-06T02:00:04.178Z,69.93
2023-02-06T02:02:32.587Z,69.97
2023-02-06T02:05:01.701Z,69.44
2023-02-06T02:07:46.080Z,69.58
2023-02-06T02:10:13.139Z,69.61
2023-02-06T02:12:40.279Z,69.45
2023-02-06T02:15:07.935Z,69.48
2023-02-06T02:18:03.154Z,69.93
2023-02-06T02:21:35.279Z,69.84
2023-02-06T02:24:58.835Z,69.44
2023-02-06T02:27:59.170Z,69.60
2023-02-06T02:34:02.096Z,69.04
2023-02-06T02:36:52.526Z,69.02
2023-02-06T02:39:34.877Z,69.60
2023-02-06T02:42:55.497Z,69.07
2023-02-06T02:45:51.781Z,68.83
2023-02-06T02:48:26.605Z,68.85
2023-02-06T02:50:56.336Z,69.21
2023-02-06T02:53:23.407Z,69.60
2023-02-06T02:55:50.394Z,69.36
2023-02-06T02:58:26.154Z,69.66
2023-02-06T03:01:04.230Z,69.70
2023-02-06T03:03:34.295Z,69.41
2023-02-06T03:06:22.124Z,69.91
2023-02-06T03:09:23.040Z,69.40
2023-02-06T03:12:02.753Z,69.63
2023-02-06T03:14:41.448Z,69.75
2023-02-06T03:17:15.160Z,70.19
2023-02-06T03:19:53.440Z,69.93
2023-02-06T03:22:21.418Z,70.46
2023-02-06T03:24:50.611Z,70.49
2023-02-06T03:27:19.702Z,70.28
2023-02-06T03:29:51.387Z,70.02
2023-02-06T03:32:31.317Z,70.22
2023-02-06T03:35:31.755Z,70.70
2023-02-06T03:37:59.007Z,71.33
2023-02-06T03:40:28.507Z,71.03
2023-02-06T03:43:00.667Z,71.08
2023-02-06T03:45:38.841Z,70.88
2023-02-06T03:48:18.906Z,71.10
2023-02-06T03:50:50.319Z,71.33
2023-02-06T03:53:19.670Z,71.17
2023-02-06T03:55:47.853Z,71.24
2023-02-06T03:58:15.441Z,71.66
2023-02-06T04:00:44.576Z,71.34
2023-02-06T04:03:13.424Z,71.36
2023-02-06T04:05:40.745Z,71.35
2023-02-06T04:08:07.885Z,71.66
2023-02-06T04:10:34.949Z,71.35
2023-02-06T04:13:01.994Z,71.02
2023-02-06T04:15:29.036Z,71.41
2023-02-06T04:18:01.317Z,70.94
2023-02-06T04:20:29.861Z,71.31
2023-02-06T04:22:58.741Z,70.54
2023-02-06T04:25:26.291Z,70.54
2023-02-06T04:27:53.457Z,71.17
2023-02-06T04:30:20.604Z,70.87
2023-02-06T04:32:47.645Z,70.56
2023-02-06T04:35:14.709Z,70.47
2023-02-06T04:37:41.816Z,70.60
2023-02-06T04:40:09.842Z,70.94
2023-02-06T04:42:37.004Z,71.05
2023-02-06T04:45:04.509Z,70.86
2023-02-06T04:47:31.510Z,71.40
2023-02-06T04:49:58.595Z,71.39
2023-02-06T04:52:25.598Z,71.95
2023-02-06T04:54:52.656Z,71.89
2023-02-06T04:57:19.850Z,71.49
2023-02-06T04:59:46.877Z,71.06
2023-02-06T05:02:13.861Z,71.04
2023-02-06T05:04:40.861Z,71.52
2023-02-06T05:07:09.152Z,71.50
2023-02-06T05:09:36.194Z,71.90
2023-02-06T05:12:03.241Z,71.15
2023-02-06T05:14:30.235Z,71.40
2023-02-06T05:16:57.306Z,71.19
2023-02-06T05:19:24.300Z,71.06
2023-02-06T05:21:51.415Z,70.41
2023-02-06T05:24:18.809Z,70.41
2023-02-06T05:26:46.608Z,70.51
2023-02-06T05:29:13.689Z,69.77
2023-02-06T05:31:40.775Z,70.09
2023-02-06T05:34:09.437Z,69.54
2023-02-06T05:36:36.741Z,69.67
2023-02-06T05:39:04.788Z,70.44
2023-02-06T05:41:31.969Z,70.52
2023-02-06T05:43:59.061Z,70.56
2023-02-06T05:46:26.218Z,70.36
2023-02-06T05:48:53.323Z,70.08
2023-02-06T05:51:20.423Z,70.54
2023-02-06T05:53:47.424Z,70.82
2023-02-06T05:56:14.430Z,71.14
2023-02-06T05:58:41.444Z,71.14
2023-02-06T06:01:10.096Z,70.94
2023-02-06T06:03:38.583Z,70.79
2023-02-06T06:06:06.732Z,70.60
2023-02-06T06:08:33.878Z,70.94
2023-02-06T06:11:02.739Z,70.45
2023-02-06T06:13:29.900Z,70.21
2023-02-06T06:15:56.950Z,69.93
2023-02-06T06:18:24.088Z,70.35
2023-02-06T06:20:51.351Z,69.52
2023-02-06T06:23:18.421Z,69.85
2023-02-06T06:25:47.675Z,70.00
2023-02-06T06:28:15.191Z,69.72
2023-02-06T06:30:42.799Z,69.97
2023-02-06T06:33:09.931Z,69.95
2023-02-06T06:35:37.765Z,69.87
2023-02-06T06:38:04.893Z,70.19
2023-02-06T06:40:31.915Z,70.20
2023-02-06T06:42:58.929Z,69.97
2023-02-06T06:45:25.956Z,70.26
2023-02-06T06:47:53.037Z,70.13
2023-02-06T06:50:20.104Z,69.68
2023-02-06T06:52:47.101Z,68.90
2023-02-06T06:55:14.115Z,68.47
2023-02-06T06:57:41.106Z,68.19
2023-02-06T07:00:09.364Z,67.59
2023-02-06T07:02:36.389Z,67.18
2023-02-06T07:05:04.536Z,66.60
2023-02-06T07:07:32.211Z,66.29
2023-02-06T07:10:00.101Z,65.60
2023-02-06T07:12:28.112Z,65.93
2023-02-06T07:14:55.207Z,65.48
2023-02-06T07:17:22.305Z,64.53
2023-02-06T07:19:51.583Z,64.09
2023-02-06T07:22:20.166Z,63.77
2023-02-06T07:24:47.648Z,63.16
2023-02-06T07:27:14.993Z,62.12
2023-02-06T07:29:41.984Z,62.14
2023-02-06T07:32:09.209Z,62.72
2023-02-06T07:34:36.664Z,63.35
2023-02-06T07:37:04.798Z,64.11
2023-02-06T07:39:32.144Z,64.80
2023-02-06T07:41:59.205Z,65.22
2023-02-06T07:44:26.211Z,64.87
2023-02-06T07:46:53.192Z,65.01
2023-02-06T07:49:20.275Z,65.20
2023-02-06T07:51:47.280Z,65.51
2023-02-06T07:54:14.486Z,65.62
2023-02-06T07:56:42.127Z,65.69
2023-02-06T07:59:09.544Z,64.35
2023-02-06T08:01:36.961Z,63.30
2023-02-06T08:04:04.281Z,62.00
2023-02-06T08:06:31.693Z,61.23
2023-02-06T08:08:58.880Z,59.99
2023-02-06T08:11:27.796Z,60.41
2023-02-06T08:13:54.818Z,61.24
2023-02-06T08:16:23.627Z,61.42
2023-02-06T08:18:51.301Z,62.20
2023-02-06T08:21:22.107Z,61.93
2023-02-06T08:23:58.840Z,62.08
2023-02-06T08:26:28.958Z,62.64
2023-02-06T08:28:57.780Z,61.82
2023-02-06T08:31:31.939Z,61.40
2023-02-06T08:33:59.177Z,61.39
2023-02-06T08:36:27.521Z,61.14
2023-02-06T08:38:54.549Z,60.14
2023-02-06T08:41:26.635Z,59.99
2023-02-06T08:43:57.566Z,58.82
2023-02-06T08:46:28.392Z,59.24
2023-02-06T08:49:08.028Z,59.04
2023-02-06T08:51:36.841Z,57.01
2023-02-06T08:54:07.154Z,55.34
2023-02-06T08:56:37.026Z,53.54
2023-02-06T08:59:05.384Z,52.59
2023-02-06T09:01:35.509Z,50.74
2023-02-06T09:04:07.392Z,49.51
2023-02-06T09:06:44.153Z,48.02
2023-02-06T09:09:12.886Z,45.81
2023-02-06T09:11:40.397Z,45.08
2023-02-06T09:14:12.286Z,43.69
2023-02-06T09:16:39.335Z,42.78
2023-02-06T09:19:06.549Z,42.33
2023-02-06T09:21:35.691Z,42.36
2023-02-06T09:24:07.148Z,41.10
2023-02-06T09:26:57.111Z,39.94
2023-02-06T09:29:28.752Z,39.56
2023-02-06T09:31:57.548Z,39.27
2023-02-06T09:34:26.085Z,38.78
2023-02-06T09:36:56.986Z,38.38
2023-02-06T09:39:24.895Z,37.33
2023-02-06T09:42:08.012Z,37.16
2023-02-06T09:44:41.902Z,35.69
2023-02-06T09:47:34.054Z,34.67
2023-02-06T09:50:09.184Z,34.59
2023-02-06T09:53:16.718Z,34.63
2023-02-06T09:55:49.512Z,34.91
2023-02-06T09:58:35.142Z,34.91
2023-02-06T10:01:31.781Z,35.11
2023-02-06T10:04:28.981Z,35.39
2023-02-06T10:07:31.114Z,36.65
2023-02-06T10:10:27.319Z,37.44
2023-02-06T10:13:05.097Z,37.15
2023-02-06T10:15:49.313Z,37.62
2023-02-06T10:18:36.322Z,38.63
2023-02-06T10:21:29.334Z,38.68
2023-02-06T10:24:07.743Z,39.17
2023-02-06T10:26:39.723Z,39.25
2023-02-06T10:29:16.921Z,39.51
2023-02-06T10:32:15.598Z,40.56
2023-02-06T10:34:53.649Z,40.54
2023-02-06T10:37:26.477Z,41.31
2023-02-06T10:40:30.066Z,41.15
2023-02-06T10:43:24.197Z,41.73
2023-02-06T10:46:09.591Z,42.67
2023-02-06T10:49:23.703Z,43.37
2023-02-06T10:52:02.920Z,43.76
2023-02-06T10:54:38.781Z,45.22
2023-02-06T10:57:15.972Z,45.96
2023-02-06T10:59:53.539Z,46.74
2023-02-06T11:02:24.185Z,46.81
2023-02-06T11:05:00.275Z,46.84
2023-02-06T11:07:45.521Z,46.54
2023-02-06T11:10:17.479Z,47.17
2023-02-06T11:13:15.294Z,46.98
2023-02-06T11:16:06.326Z,47.75
2023-02-06T11:18:45.025Z,47.91
2023-02-06T11:21:15.317Z,48.11
2023-02-06T11:23:42.783Z,48.09
2023-02-06T11:26:22.665Z,48.37
2023-02-06T11:28:52.913Z,49.03
2023-02-06T11:31:38.439Z,49.64
2023-02-06T11:34:05.938Z,49.32
2023-02-06T11:36:37.571Z,49.62
2023-02-06T11:39:21.502Z,49.96
2023-02-06T11:42:02.834Z,50.63
2023-02-06T11:44:39.125Z,50.49
2023-02-06T11:47:38.097Z,51.04
2023-02-06T11:50:14.196Z,51.20
2023-02-06T11:52:47.041Z,51.06
2023-02-06T11:55:36.597Z,51.28
2023-02-06T11:58:11.743Z,51.22
2023-02-06T12:01:04.299Z,51.90
2023-02-06T12:03:38.643Z,51.39
2023-02-06T12:06:35.848Z,52.03
2023-02-06T12:09:11.651Z,52.58
2023-02-06T12:12:13.171Z,53.43
2023-02-06T12:15:04.887Z,53.29
2023-02-06T12:17:43.877Z,53.43
2023-02-06T12:20:26.454Z,53.58
2023-02-06T12:23:16.276Z,53.62
2023-02-06T12:25:49.938Z,53.75
2023-02-06T12:28:33.701Z,53.86
2023-02-06T12:31:24.332Z,53.53
2023-02-06T12:33:56.117Z,53.69
2023-02-06T12:36:30.750Z,53.78
2023-02-06T12:39:07.555Z,53.51
2023-02-06T12:42:05.733Z,52.92
2023-02-06T12:45:03.611Z,53.50
2023-02-06T12:48:18.085Z,54.02
2023-02-06T12:51:16.307Z,53.17
2023-02-06T12:53:51.421Z,53.85
2023-02-06T12:56:37.740Z,54.75
2023-02-06T12:59:07.646Z,54.33
2023-02-06T13:02:27.383Z,54.84
2023-02-06T13:04:55.577Z,54.70
2023-02-06T13:07:25.378Z,55.18
2023-02-06T13:10:02.969Z,54.90
2023-02-06T13:12:32.383Z,55.08
2023-02-06T13:15:05.192Z,54.56
2023-02-06T13:17:37.966Z,55.07
2023-02-06T13:20:16.492Z,55.29
2023-02-06T13:22:55.151Z,55.12
2023-02-06T13:25:31.152Z,55.40
2023-02-06T13:28:01.297Z,55.49
2023-02-06T13:30:31.509Z,55.58
2023-02-06T13:33:23.007Z,55.70
2023-02-06T13:36:04.009Z,55.89
2023-02-06T13:38:33.930Z,55.38
2023-02-06T13:41:15.825Z,55.18
2023-02-06T13:44:11.550Z,55.18
2023-02-06T13:47:08.386Z,56.04
2023-02-06T13:49:53.043Z,56.60
2023-02-06T13:53:12.788Z,57.35
2023-02-06T13:56:05.996Z,57.79
2023-02-06T13:58:51.746Z,58.35
2023-02-06T14:01:29.358Z,58.70
2023-02-06T14:03:58.185Z,58.83
2023-02-06T14:06:56.814Z,58.79
2023-02-06T14:10:16.706Z,59.09
2023-02-06T14:13:23.568Z,59.47
2023-02-06T14:15:58.875Z,59.37
2023-02-06T14:19:02.392Z,59.66
2023-02-06T14:21:46.818Z,60.00
2023-02-06T14:24:31.473Z,59.97
2023-02-06T14:27:32.241Z,60.31
2023-02-06T14:30:19.898Z,60.65
2023-02-06T14:33:07.286Z,60.56
2023-02-06T14:35:55.426Z,60.74
2023-02-06T14:38:58.914Z,61.28
2023-02-06T14:41:30.956Z,61.03
2023-02-06T14:43:59.532Z,61.33
2023-02-06T14:46:27.617Z,61.64
2023-02-06T14:48:58.698Z,61.67
2023-02-06T14:51:34.163Z,61.57
2023-02-06T14:54:26.522Z,61.90
2023-02-06T14:57:06.853Z,62.00
2023-02-06T14:59:33.969Z,62.16
2023-02-06T15:02:14.011Z,62.55
2023-02-06T15:04:47.758Z,62.44
2023-02-06T15:07:37.353Z,62.47
2023-02-06T15:10:06.802Z,62.78
2023-02-06T15:12:35.036Z,63.29
2023-02-06T15:15:27.505Z,63.57
2023-02-06T15:18:23.125Z,63.66
2023-02-06T15:21:07.253Z,63.73
2023-02-06T15:24:02.916Z,63.84
2023-02-06T15:27:16.536Z,64.33
2023-02-06T15:29:49.901Z,64.61
2023-02-06T15:32:39.471Z,64.27
2023-02-06T15:35:36.414Z,64.41
2023-02-06T15:38:16.001Z,64.78
2023-02-06T15:40:51.500Z,65.83
2023-02-06T15:43:27.424Z,66.27
2023-02-06T15:45:58.734Z,66.29
2023-02-06T15:48:38.822Z,65.78
2023-02-06T15:51:08.753Z,66.22
2023-02-06T15:53:41.096Z,66.32
2023-02-06T15:56:34.906Z,66.38
2023-02-06T15:59:06.384Z,66.63
2023-02-06T16:01:38.963Z,66.21
2023-02-06T16:04:32.222Z,65.40
2023-02-06T16:07:25.722Z,66.50
2023-02-06T16:10:18.760Z,66.79
2023-02-06T16:12:46.292Z,66.38
2023-02-06T16:15:31.896Z,66.54
2023-02-06T16:18:17.600Z,66.41
2023-02-06T16:20:46.502Z,67.08
2023-02-06T16:23:29.730Z,66.90
2023-02-06T16:26:07.487Z,67.04
2023-02-06T16:29:08.780Z,66.90
2023-02-06T16:31:41.425Z,66.92
2023-02-06T16:34:47.787Z,66.73
2023-02-06T16:37:24.996Z,66.58
2023-02-06T16:39:52.863Z,66.43
2023-02-06T16:42:36.737Z,66.44
2023-02-06T16:45:26.369Z,66.43
2023-02-06T16:47:54.918Z,66.79
2023-02-06T16:50:22.705Z,66.76
2023-02-06T16:52:53.653Z,67.07
2023-02-06T16:55:24.621Z,66.90
2023-02-06T16:57:56.458Z,66.81
2023-02-06T17:00:33.713Z,66.77
2023-02-06T17:03:00.849Z,66.67
2023-02-06T17:05:29.129Z,67.61
2023-02-06T17:07:56.502Z,68.29
2023-02-06T17:10:26.462Z,69.26
2023-02-06T17:12:54.290Z,69.89
2023-02-06T17:15:22.043Z,69.01
2023-02-06T17:17:49.161Z,69.05
2023-02-06T17:20:36.991Z,68.96
2023-02-06T17:23:05.355Z,68.94
2023-02-06T17:25:32.601Z,68.16
2023-02-06T17:28:00.309Z,68.63
2023-02-06T17:30:27.818Z,68.69
2023-02-06T17:32:55.495Z,68.56
2023-02-06T17:35:22.610Z,67.94
2023-02-06T17:37:51.426Z,67.78
2023-02-06T17:40:29.565Z,68.34
2023-02-06T17:42:58.207Z,68.27
2023-02-06T17:45:26.384Z,68.31
2023-02-06T17:47:53.759Z,69.05
2023-02-06T17:50:25.952Z,69.29
2023-02-06T17:52:55.663Z,69.12
2023-02-06T17:55:24.088Z,69.13
2023-02-06T17:57:51.457Z,69.20
2023-02-06T18:00:23.120Z,68.81
2023-02-06T18:02:52.489Z,68.84
2023-02-06T18:05:20.305Z,69.38
2023-02-06T18:07:49.597Z,69.45
2023-02-06T18:10:22.246Z,69.44
2023-02-06T18:12:49.717Z,69.47
2023-02-06T18:15:17.775Z,69.60
2023-02-06T18:17:44.812Z,69.92
2023-02-06T18:20:12.971Z,69.55
2023-02-06T18:22:42.939Z,69.52
2023-02-06T18:25:14.363Z,69.61
2023-02-06T18:27:45.202Z,69.56
2023-02-06T18:30:14.119Z,69.17
2023-02-06T18:32:41.576Z,69.72
2023-02-06T18:35:10.438Z,70.12
2023-02-06T18:37:37.688Z,70.31
2023-02-06T18:40:05.331Z,70.32
2023-02-06T18:42:50.912Z,69.97
2023-02-06T18:45:24.048Z,70.54
2023-02-06T18:47:51.791Z,70.23
2023-02-06T18:50:22.721Z,70.60
2023-02-06T18:52:50.211Z,70.13
2023-02-06T18:55:17.320Z,70.43
2023-02-06T18:57:44.448Z,70.17
2023-02-06T19:00:13.805Z,70.00
2023-02-06T19:02:41.719Z,69.84
2023-02-06T19:05:08.993Z,70.03
2023-02-06T19:07:36.062Z,70.14
2023-02-06T19:10:06.170Z,69.68
2023-02-06T19:12:33.321Z,70.07
2023-02-06T19:15:00.397Z,70.06
2023-02-06T19:17:28.393Z,70.16
2023-02-06T19:19:55.867Z,69.73
2023-02-06T19:22:23.470Z,69.27
2023-02-06T19:24:53.954Z,68.82
2023-02-06T19:27:21.990Z,69.35
2023-02-06T19:29:49.199Z,69.38
2023-02-06T19:32:16.349Z,68.40
2023-02-06T19:34:45.228Z,68.55
2023-02-06T19:37:13.458Z,68.80
2023-02-06T19:39:43.180Z,68.73
2023-02-06T19:42:11.174Z,68.98
2023-02-06T19:44:38.301Z,68.62
2023-02-06T19:47:05.413Z,69.04
2023-02-06T19:49:32.525Z,69.10
2023-02-06T19:51:59.804Z,69.51
2023-02-06T19:54:27.709Z,69.11
2023-02-06T19:56:55.156Z,69.01
2023-02-06T19:59:28.224Z,69.30
2023-02-06T20:02:01.740Z,69.03
2023-02-06T20:04:35.522Z,68.66
2023-02-06T20:07:03.190Z,68.49
2023-02-06T20:09:30.884Z,68.66
2023-02-06T20:11:58.472Z,68.96
2023-02-06T20:14:26.898Z,69.04
2023-02-06T20:16:54.300Z,68.82
2023-02-06T20:19:26.875Z,68.90
2023-02-06T20:21:58.991Z,69.11
2023-02-06T20:24:30.595Z,69.06
2023-02-06T20:27:01.629Z,69.56
2023-02-06T20:29:33.029Z,69.20
2023-02-06T20:32:00.868Z,69.45
2023-02-06T20:34:28.840Z,69.42
2023-02-06T20:36:56.484Z,69.28
2023-02-06T20:39:24.605Z,69.16
2023-02-06T20:41:52.075Z,69.02
2023-02-06T20:44:20.097Z,69.05
2023-02-06T20:46:47.796Z,69.19
2023-02-06T20:49:25.072Z,69.01
2023-02-06T20:51:53.309Z,69.39
2023-02-06T20:54:21.592Z,69.09
2023-02-06T20:56:49.771Z,69.02
2023-02-06T20:59:20.033Z,69.73
2023-02-06T21:01:47.373Z,69.35
2023-02-06T21:04:16.282Z,69.49
2023-02-06T21:06:44.550Z,69.37
2023-02-06T21:09:12.117Z,69.55
2023-02-06T21:11:46.456Z,69.38
2023-02-06T21:14:14.951Z,69.20
2023-02-06T21:16:43.799Z,68.89
2023-02-06T21:19:14.398Z,68.91
2023-02-06T21:21:41.609Z,68.56
2023-02-06T21:24:09.257Z,68.96
2023-02-06T21:26:37.316Z,69.00
2023-02-06T21:29:08.781Z,69.19
2023-02-06T21:31:38.572Z,68.99
2023-02-06T21:34:25.572Z,69.08
2023-02-06T21:36:54.621Z,69.29
2023-02-06T21:39:27.034Z,69.21
2023-02-06T21:41:54.792Z,69.08
2023-02-06T21:44:24.543Z,68.80
2023-02-06T21:46:52.885Z,69.18
2023-02-06T21:49:21.216Z,69.01
2023-02-06T21:51:48.271Z,69.11
2023-02-06T21:54:15.303Z,69.23
2023-02-06T21:56:42.952Z,68.80
2023-02-06T21:59:12.364Z,69.40
2023-02-06T22:01:41.183Z,69.26
2023-02-06T22:04:10.663Z,69.32
2023-02-06T22:06:39.311Z,69.63
2023-02-06T22:09:09.434Z,70.21
2023-02-06T22:11:39.281Z,69.74
2023-02-06T22:14:12.096Z,69.84
2023-02-06T22:16:40.126Z,70.30
2023-02-06T22:19:08.041Z,69.71
2023-02-06T22:21:35.962Z,69.84
2023-02-06T22:24:06.705Z,69.88
2023-02-06T22:26:36.940Z,69.85
2023-02-06T22:29:05.445Z,69.97
2023-02-06T22:31:35.238Z,70.03
2023-02-06T22:34:02.958Z,69.92
2023-02-06T22:36:32.851Z,70.11
2023-02-06T22:39:07.089Z,70.08
2023-02-06T22:41:35.772Z,69.78
2023-02-06T22:44:03.046Z,70.03
2023-02-06T22:46:36.276Z,69.98
2023-02-06T22:49:09.182Z,69.91
2023-02-06T22:51:38.569Z,69.93
2023-02-06T22:54:09.468Z,69.90
2023-02-06T22:56:38.822Z,69.97
2023-02-06T22:59:25.091Z,70.11
2023-02-06T23:01:55.882Z,69.96
2023-02-06T23:04:29.269Z,70.54
2023-02-06T23:06:57.063Z,69.88
2023-02-06T23:09:28.332Z,70.62
2023-02-06T23:11:59.810Z,69.96
2023-02-06T23:14:29.353Z,70.12
2023-02-06T23:16:57.015Z,69.81
2023-02-06T23:19:24.439Z,70.02
2023-02-06T23:21:52.153Z,69.20
2023-02-06T23:24:20.136Z,69.66
2023-02-06T23:26:50.371Z,70.04
2023-02-06T23:29:22.103Z,69.84
2023-02-06T23:31:50.154Z,69.40
2023-02-06T23:34:18.323Z,70.02
2023-02-06T23:36:46.332Z,70.38
2023-02-06T23:39:13.851Z,69.81
2023-02-06T23:41:41.251Z,70.33
2023-02-06T23:44:10.398Z,69.75
2023-02-06T23:46:39.166Z,69.86
2023-02-06T23:49:07.151Z,69.50
2023-02-06T23:51:35.918Z,70.23
2023-02-06T23:54:03.655Z,69.83
2023-02-06T23:56:32.275Z,69.92
2023-02-06T23:59:01.722Z,70.06
